Weather History for KTYQ - March, 2014

Change the Weather History Date:

Tuesday, March 18, 2014

  Actual Average (KEYE) Record (KEYE)
Temperature  
Mean Temperature 38 °F 43 °F  
Max Temperature 53 °F 52 °F - ()
Min Temperature 23 °F 34 °F - ()
Degree Days  
Heating Degree Days 27 22  
Month to date heating degree days 450  
Since 1 July heating degree days 4575  
Cooling Degree Days 0 0  
Month to date cooling degree days 0  
Year to date cooling degree days 0  
Moisture  
Dew Point 29 °F    
Average Humidity 69    
Maximum Humidity 87    
Minimum Humidity 52    
Precipitation  
Precipitation 0.00 in 0.12 in - ()
Month to date precipitation 1.57  
Year to date precipitation 5.91  
Sea Level Pressure  
Sea Level Pressure 29.86 in    
Wind  
Wind Speed 7 mph (SE)    
Max Wind Speed 21 mph    
Max Gust Speed 28 mph    
Visibility 9 miles    
Events      
T = Trace of Precipitation, MM = Missing Value Source: NWS Daily Summary

Daily Weather History Graph

Daily Weather History Graph

Search for Another Location

Airport or City:

Trip Planner

Search our weather history database for the weather conditions in past years. The results will help you decide how hot, cold, wet, or windy it might be!

Date:

Astronomy

Mar. 18, 2014 Rise Set
Actual Time 7:51 AM EDT 7:55 PM EDT
Civil Twilight 7:24 AM EDT 8:22 PM EDT
Nautical Twilight 6:53 AM EDT 8:53 PM EDT
Astronomical Twilight 6:21 AM EDT 9:25 PM EDT
Moon 10:11 PM EDT (3/18) 8:40 AM EDT (3/18)
Length of Visible Light 12h 57m
Length of Day
12h 03m
Waning Gibbous, 96% of the Moon is Illuminated
Mar 18
Waning Gibbous
Mar 23
Last Quarter
Mar 30
New
Apr 7
First Quarter
Apr 15
Full

Hourly Weather History & Observations

Time (EDT) Temp. Windchill Dew Point Humidity Pressure Visibility Wind Dir Wind Speed Gust Speed Precip Events Conditions
12:15 AM 30.4 °F 25.6 °F 22.1 °F 71% 29.88 in 10.0 mi ESE 4.6 mph - N/A   Clear
12:35 AM 29.7 °F 24.7 °F 22.1 °F 73% 29.87 in 10.0 mi ESE 4.6 mph - N/A   Clear
12:55 AM 30.2 °F 24.3 °F 22.6 °F 73% 29.87 in 10.0 mi ESE 5.8 mph - N/A   Clear
1:15 AM 30.9 °F 26.2 °F 23.0 °F 72% 29.88 in 10.0 mi SE 4.6 mph - N/A   Clear
1:35 AM 30.4 °F 26.9 °F 22.8 °F 73% 29.88 in 10.0 mi SE 3.5 mph - N/A   Clear
1:55 AM 29.5 °F - 22.5 °F 75% 29.88 in 10.0 mi Calm Calm - N/A   Clear
2:15 AM 28.0 °F 22.8 °F 22.5 °F 80% 29.87 in 10.0 mi SE 4.6 mph - N/A   Clear
2:35 AM 29.3 °F 25.6 °F 23.0 °F 77% 29.87 in 10.0 mi SSE 3.5 mph - N/A   Clear
2:55 AM 28.8 °F - 22.1 °F 76% 29.88 in 10.0 mi Calm Calm - N/A   Clear
3:15 AM 26.8 °F - 21.9 °F 82% 29.88 in 10.0 mi Calm Calm - N/A   Clear
3:35 AM 26.4 °F 22.4 °F 21.9 °F 83% 29.88 in 10.0 mi ESE 3.5 mph - N/A   Clear
3:55 AM 26.1 °F - 21.7 °F 84% 29.88 in 10.0 mi Calm Calm - N/A   Clear
4:15 AM 25.7 °F - 21.7 °F 85% 29.88 in 10.0 mi Calm Calm - N/A   Clear
4:35 AM 24.4 °F - 20.1 °F 84% 29.88 in 7.0 mi Calm Calm - N/A   Clear
4:55 AM 23.9 °F - 20.3 °F 86% 29.89 in 7.0 mi Calm Calm - N/A   Clear
5:15 AM 23.9 °F 19.5 °F 20.1 °F 85% 29.89 in 7.0 mi NE 3.5 mph - N/A   Clear
5:35 AM 24.1 °F - 20.5 °F 86% 29.90 in 7.0 mi Calm Calm - N/A   Clear
5:55 AM 24.1 °F 19.7 °F 20.3 °F 85% 29.90 in 5.0 mi ESE 3.5 mph - N/A   Clear
6:15 AM 24.4 °F 20.1 °F 21.0 °F 87% 29.90 in 7.0 mi East 3.5 mph - N/A   Clear
6:35 AM 24.4 °F 18.6 °F 21.0 °F 87% 29.90 in 7.0 mi East 4.6 mph - N/A   Clear
6:55 AM 25.3 °F 19.7 °F 21.6 °F 86% 29.90 in 7.0 mi ESE 4.6 mph - N/A   Clear
7:15 AM 26.6 °F - 22.3 °F 84% 29.90 in 7.0 mi Calm Calm - N/A   Clear
7:35 AM 26.6 °F - 22.1 °F 83% 29.91 in 7.0 mi Calm Calm - N/A   Clear
7:55 AM 26.6 °F 22.6 °F 22.1 °F 83% 29.91 in 7.0 mi ESE 3.5 mph - N/A   Clear
8:15 AM 26.6 °F 22.6 °F 22.1 °F 83% 29.91 in 5.0 mi ESE 3.5 mph - N/A   Haze
8:35 AM 27.9 °F 22.6 °F 23.2 °F 83% 29.91 in 7.0 mi ESE 4.6 mph - N/A   Clear
8:55 AM 29.7 °F 23.7 °F 24.4 °F 81% 29.90 in 7.0 mi ESE 5.8 mph - N/A   Clear
9:15 AM 32.0 °F 27.5 °F 25.5 °F 77% 29.90 in 10.0 mi SE 4.6 mph - N/A   Clear
9:35 AM 33.6 °F 27.5 °F 26.2 °F 74% 29.90 in 10.0 mi SE 6.9 mph - N/A   Clear
9:55 AM 35.8 °F 30.9 °F 27.3 °F 71% 29.90 in 10.0 mi SSE 5.8 mph - N/A   Clear
10:15 AM 37.6 °F 32.3 °F 28.0 °F 68% 29.91 in 10.0 mi SSE 6.9 mph - N/A   Clear
10:35 AM 39.2 °F 33.0 °F 28.9 °F 67% 29.92 in 10.0 mi SSE 9.2 mph - N/A   Clear
10:55 AM 40.6 °F 34.8 °F 30.0 °F 66% 29.92 in 10.0 mi SSE 9.2 mph - N/A   Clear
11:15 AM 40.5 °F 33.6 °F 29.5 °F 65% 29.92 in 10.0 mi SSE 11.5 mph 17.3 mph N/A   Clear
11:35 AM 42.1 °F 35.7 °F 30.4 °F 63% 29.92 in 10.0 mi SE 11.5 mph 16.1 mph N/A   Clear
11:55 AM 42.3 °F 35.9 °F 30.7 °F 64% 29.92 in 10.0 mi SSE 11.5 mph 18.4 mph N/A   Clear
12:15 PM 43.3 °F 36.8 °F 31.6 °F 63% 29.92 in 10.0 mi SSE 12.7 mph 17.3 mph N/A   Clear
12:35 PM 44.2 °F 38.0 °F 32.0 °F 62% 29.92 in 10.0 mi SE 12.7 mph 19.6 mph N/A   Clear
12:55 PM 45.9 °F 40.8 °F 32.2 °F 59% 29.93 in 10.0 mi SE 10.4 mph 16.1 mph N/A   Clear
1:15 PM 47.1 °F - 32.0 °F 56% 29.93 in 10.0 mi SE 9.2 mph 17.3 mph N/A   Clear
1:35 PM 48.0 °F - 32.2 °F 54% 29.93 in 10.0 mi SSE 11.5 mph - N/A   Clear
1:55 PM 48.6 °F - 32.5 °F 54% 29.92 in 10.0 mi SSE 13.8 mph 17.3 mph N/A   Clear
2:15 PM 47.8 °F - 32.7 °F 56% 29.92 in 10.0 mi SSE 12.7 mph - N/A   Clear
2:35 PM 46.9 °F - 32.4 °F 57% 29.90 in 10.0 mi SE 15.0 mph - N/A   Clear
2:55 PM 47.3 °F - 32.9 °F 57% 29.89 in 10.0 mi SSE 12.7 mph 23.0 mph N/A   Clear
3:15 PM 48.2 °F - 33.4 °F 57% 29.90 in 10.0 mi South 8.1 mph - N/A   Clear
3:35 PM 51.1 °F - 34.2 °F 52% 29.89 in 10.0 mi SSE 9.2 mph - N/A   Clear
3:55 PM 51.6 °F - 34.3 °F 52% 29.88 in 10.0 mi SSE 13.8 mph 17.3 mph N/A   Clear
4:15 PM 51.6 °F - 34.5 °F 52% 29.87 in 10.0 mi SE 12.7 mph - N/A   Clear
4:35 PM 51.8 °F - 34.9 °F 53% 29.86 in 10.0 mi SSE 17.3 mph - N/A   Clear
4:55 PM 52.9 °F - 35.4 °F 52% 29.85 in 10.0 mi SSE 17.3 mph 23.0 mph N/A   Clear
5:15 PM 52.7 °F - 35.6 °F 52% 29.84 in 10.0 mi SSE 17.3 mph 24.2 mph N/A   Clear
5:35 PM 53.1 °F - 35.6 °F 52% 29.83 in 10.0 mi SSE 17.3 mph 21.9 mph N/A   Clear
5:55 PM 53.1 °F - 36.0 °F 52% 29.81 in 10.0 mi SSE 16.1 mph - N/A   Clear
6:15 PM 53.1 °F - 36.0 °F 52% 29.80 in 10.0 mi SSE 18.4 mph 24.2 mph N/A   Clear
6:35 PM 52.9 °F - 36.1 °F 53% 29.80 in 10.0 mi SSE 16.1 mph 20.7 mph N/A   Clear
6:55 PM 52.0 °F - 35.6 °F 54% 29.79 in 10.0 mi SSE 17.3 mph 23.0 mph N/A   Clear
7:15 PM 51.1 °F - 35.6 °F 55% 29.79 in 10.0 mi SE 15.0 mph 21.9 mph N/A   Clear
7:35 PM 50.2 °F - 35.6 °F 57% 29.79 in 10.0 mi SSE 17.3 mph 20.7 mph N/A   Clear
7:55 PM 48.7 °F - 35.8 °F 61% 29.79 in 10.0 mi South 12.7 mph 19.6 mph N/A   Clear
8:15 PM 47.5 °F - 35.8 °F 64% 29.78 in 10.0 mi SSE 18.4 mph 25.3 mph N/A   Clear
8:35 PM 46.6 °F - 36.0 °F 67% 29.77 in 10.0 mi SSE 20.7 mph 25.3 mph N/A   Clear
8:55 PM 46.4 °F 38.7 °F 36.5 °F 68% 29.77 in 10.0 mi SSE 20.7 mph 27.6 mph N/A   Mostly Cloudy
9:15 PM 46.6 °F - 36.9 °F 69% 29.74 in 10.0 mi SSE 18.4 mph 27.6 mph N/A   Overcast
9:35 PM 46.9 °F - 37.4 °F 69% 29.75 in 10.0 mi SSE 17.3 mph 26.5 mph N/A   Overcast
9:55 PM 46.9 °F - 37.4 °F 69% 29.77 in 10.0 mi SSE 10.4 mph 20.7 mph N/A   Overcast
10:15 PM 46.8 °F - 37.6 °F 70% 29.76 in 10.0 mi SSE 16.1 mph 23.0 mph N/A   Overcast
10:35 PM 46.8 °F - 37.8 °F 71% 29.75 in 10.0 mi SSE 19.6 mph 26.5 mph N/A   Mostly Cloudy
10:55 PM 46.8 °F - 38.1 °F 72% 29.77 in 10.0 mi South 13.8 mph 23.0 mph N/A   Scattered Clouds
11:15 PM 47.3 °F - 38.5 °F 71% 29.79 in 10.0 mi South 9.2 mph 16.1 mph N/A   Mostly Cloudy
11:35 PM 47.5 °F - 38.7 °F 71% 29.80 in 10.0 mi South 12.7 mph 17.3 mph N/A   Overcast
11:55 PM 47.5 °F - 39.0 °F 72% 29.79 in 10.0 mi South 13.8 mph 18.4 mph N/A   Overcast